createdAt,value
2023-05-09T00:01:55.310Z,12.00
2023-05-09T00:03:55.276Z,12.00
2023-05-09T00:05:55.248Z,12.00
2023-05-09T00:07:55.257Z,12.00
2023-05-09T00:09:55.254Z,11.94
2023-05-09T00:11:55.259Z,11.94
2023-05-09T00:13:55.247Z,11.94
2023-05-09T00:15:55.337Z,11.94
2023-05-09T00:17:55.278Z,11.94
2023-05-09T00:19:55.253Z,11.94
2023-05-09T00:21:55.269Z,11.94
2023-05-09T00:23:55.248Z,11.94
2023-05-09T00:25:55.270Z,11.88
2023-05-09T00:27:55.268Z,11.94
2023-05-09T00:29:55.263Z,11.88
2023-05-09T00:31:55.396Z,11.88
2023-05-09T00:33:55.252Z,11.88
2023-05-09T00:35:55.266Z,11.88
2023-05-09T00:37:55.254Z,11.81
2023-05-09T00:39:55.302Z,11.81
2023-05-09T00:41:55.261Z,11.81
2023-05-09T00:43:55.268Z,11.81
2023-05-09T00:45:55.317Z,11.81
2023-05-09T00:47:55.361Z,11.75
2023-05-09T00:49:55.273Z,11.69
2023-05-09T00:51:55.262Z,11.75
2023-05-09T00:53:55.282Z,11.69
2023-05-09T00:55:55.270Z,11.75
2023-05-09T00:57:55.264Z,11.69
2023-05-09T00:59:55.304Z,11.62
2023-05-09T01:01:55.264Z,11.69
2023-05-09T01:03:55.428Z,11.69
2023-05-09T01:05:55.265Z,11.62
2023-05-09T01:07:55.318Z,11.62
2023-05-09T01:09:55.270Z,11.62
2023-05-09T01:11:55.272Z,11.62
2023-05-09T01:13:55.285Z,11.62
2023-05-09T01:15:55.377Z,11.56
2023-05-09T01:17:55.407Z,11.56
2023-05-09T01:19:55.384Z,11.56
2023-05-09T01:21:55.293Z,11.56
2023-05-09T01:23:55.286Z,11.56
2023-05-09T01:25:55.284Z,11.56
2023-05-09T01:27:55.292Z,11.50
2023-05-09T01:29:55.280Z,11.44
2023-05-09T01:31:55.314Z,11.44
2023-05-09T01:33:55.328Z,11.50
2023-05-09T01:35:55.398Z,11.44
2023-05-09T01:37:55.284Z,11.44
2023-05-09T01:39:55.283Z,11.38
2023-05-09T01:41:55.304Z,11.44
2023-05-09T01:43:55.317Z,11.31
2023-05-09T01:45:55.317Z,11.38
2023-05-09T01:47:55.305Z,11.38
2023-05-09T01:49:55.297Z,11.31
2023-05-09T01:51:55.395Z,11.31
2023-05-09T01:53:55.293Z,11.25
2023-05-09T01:55:55.304Z,11.31
2023-05-09T01:57:55.292Z,11.31
2023-05-09T01:59:55.308Z,11.31
2023-05-09T02:01:55.375Z,11.25
2023-05-09T02:03:55.300Z,11.25
2023-05-09T02:05:55.297Z,11.25
2023-05-09T02:07:55.381Z,11.25
2023-05-09T02:09:55.334Z,11.31
2023-05-09T02:11:55.324Z,11.31
2023-05-09T02:13:55.314Z,11.31
2023-05-09T02:15:55.294Z,11.31
2023-05-09T02:17:55.353Z,11.31
2023-05-09T02:19:55.308Z,11.25
2023-05-09T02:21:55.297Z,11.25
2023-05-09T02:23:55.398Z,11.25
2023-05-09T02:25:55.296Z,11.12
2023-05-09T02:27:55.309Z,11.19
2023-05-09T02:29:55.333Z,11.25
2023-05-09T02:31:55.349Z,11.19
2023-05-09T02:33:55.311Z,11.19
2023-05-09T02:35:55.308Z,11.19
2023-05-09T02:37:55.326Z,11.19
2023-05-09T02:39:55.400Z,11.12
2023-05-09T02:41:55.319Z,11.12
2023-05-09T02:43:55.307Z,11.12
2023-05-09T02:45:55.339Z,11.12
2023-05-09T02:47:55.393Z,11.12
2023-05-09T02:49:55.320Z,11.12
2023-05-09T02:51:55.320Z,11.06
2023-05-09T02:53:55.307Z,11.06
2023-05-09T02:55:55.408Z,11.06
2023-05-09T02:58:05.660Z,11.00
2023-05-09T02:59:55.308Z,11.06
2023-05-09T03:01:55.366Z,11.06
2023-05-09T03:03:55.377Z,11.00
2023-05-09T03:05:55.333Z,11.00
2023-05-09T03:07:55.319Z,11.00
2023-05-09T03:09:55.362Z,11.00
2023-05-09T03:11:55.401Z,11.00
2023-05-09T03:13:55.315Z,10.94
2023-05-09T03:15:55.350Z,10.94
2023-05-09T03:17:55.421Z,10.94
2023-05-09T03:19:55.345Z,10.94
2023-05-09T03:21:55.347Z,10.94
2023-05-09T03:23:55.339Z,10.94
2023-05-09T03:25:55.316Z,10.94
2023-05-09T03:27:55.425Z,11.00
2023-05-09T03:29:55.348Z,10.88
2023-05-09T03:31:55.392Z,10.88
2023-05-09T03:33:55.340Z,10.88
2023-05-09T03:35:55.320Z,10.88
2023-05-09T03:37:55.349Z,10.88
2023-05-09T03:39:55.332Z,10.88
2023-05-09T03:41:55.340Z,10.88
2023-05-09T03:43:55.424Z,10.81
2023-05-09T03:45:55.341Z,10.81
2023-05-09T03:47:55.384Z,10.81
2023-05-09T03:49:55.330Z,10.88
2023-05-09T03:51:55.344Z,10.81
2023-05-09T03:53:55.364Z,10.81
2023-05-09T03:55:55.328Z,10.81
2023-05-09T03:57:55.348Z,10.75
2023-05-09T03:59:55.434Z,10.75
2023-05-09T04:01:55.406Z,10.75
2023-05-09T04:03:55.398Z,10.75
2023-05-09T04:05:55.352Z,10.69
2023-05-09T04:07:55.360Z,10.75
2023-05-09T04:09:55.358Z,10.69
2023-05-09T04:11:55.364Z,10.69
2023-05-09T04:13:55.346Z,10.69
2023-05-09T04:15:55.497Z,10.62
2023-05-09T04:17:55.436Z,10.75
2023-05-09T04:19:55.362Z,10.69
2023-05-09T04:21:55.346Z,10.62
2023-05-09T04:23:55.368Z,10.69
2023-05-09T04:25:55.384Z,10.69
2023-05-09T04:27:55.348Z,10.62
2023-05-09T04:29:55.379Z,10.56
2023-05-09T04:31:55.713Z,10.56
2023-05-09T04:33:55.369Z,10.62
2023-05-09T04:35:55.352Z,10.56
2023-05-09T04:37:55.367Z,10.56
2023-05-09T04:39:55.369Z,10.56
2023-05-09T04:41:55.356Z,10.56
2023-05-09T04:43:55.370Z,10.50
2023-05-09T04:45:55.396Z,10.50
2023-05-09T04:47:55.470Z,10.50
2023-05-09T04:49:55.361Z,10.44
2023-05-09T04:51:55.375Z,10.50
2023-05-09T04:53:55.388Z,10.50
2023-05-09T04:55:55.385Z,10.56
2023-05-09T04:57:55.387Z,10.50
2023-05-09T04:59:55.372Z,10.50
2023-05-09T05:01:55.384Z,10.56
2023-05-09T05:03:55.484Z,15.75
2023-05-09T05:05:55.377Z,16.44
2023-05-09T05:07:55.376Z,16.44
2023-05-09T05:09:55.367Z,16.50
2023-05-09T05:12:01.142Z,16.50
2023-05-09T05:13:55.361Z,16.44
2023-05-09T05:15:55.411Z,16.50
2023-05-09T05:17:55.410Z,16.44
2023-05-09T05:19:55.485Z,16.44
2023-05-09T05:21:55.380Z,16.44
2023-05-09T05:23:55.370Z,16.44
2023-05-09T05:25:55.381Z,16.44
2023-05-09T05:27:55.391Z,16.50
2023-05-09T05:29:55.556Z,16.50
2023-05-09T05:31:55.461Z,16.44
2023-05-09T05:33:55.386Z,16.44
2023-05-09T05:35:55.475Z,16.44
2023-05-09T05:37:55.374Z,16.44
2023-05-09T05:39:55.387Z,16.44
2023-05-09T05:41:55.372Z,16.44
2023-05-09T05:43:55.409Z,16.44
2023-05-09T05:45:55.373Z,16.38
2023-05-09T05:47:55.461Z,16.44
2023-05-09T05:49:55.390Z,16.44
2023-05-09T05:51:55.460Z,16.44
2023-05-09T05:53:55.403Z,16.44
2023-05-09T05:55:55.374Z,16.44
2023-05-09T05:57:55.393Z,16.44
2023-05-09T05:59:55.379Z,16.44
2023-05-09T06:01:55.433Z,16.44
2023-05-09T06:03:55.524Z,16.44
2023-05-09T06:05:55.384Z,16.38
2023-05-09T06:07:55.700Z,16.38
2023-05-09T06:09:55.379Z,16.38
2023-05-09T06:11:55.408Z,16.38
2023-05-09T06:13:55.382Z,16.38
2023-05-09T06:15:57.707Z,16.38
2023-05-09T06:17:55.530Z,16.38
2023-05-09T06:19:55.388Z,16.31
2023-05-09T06:21:55.402Z,16.44
2023-05-09T06:25:55.407Z,16.38
2023-05-09T06:27:55.391Z,16.31
2023-05-09T06:29:55.416Z,16.31
2023-05-09T06:31:55.597Z,16.31
2023-05-09T06:33:55.397Z,16.38
2023-05-09T06:35:55.485Z,16.31
2023-05-09T06:37:55.394Z,16.31
2023-05-09T06:39:55.507Z,16.31
2023-05-09T06:41:55.394Z,16.31
2023-05-09T06:43:55.422Z,16.31
2023-05-09T06:45:55.432Z,16.31
2023-05-09T06:47:55.443Z,16.31
2023-05-09T06:49:55.418Z,16.31
2023-05-09T06:51:55.402Z,16.31
2023-05-09T06:53:55.427Z,16.31
2023-05-09T06:55:55.488Z,16.25
2023-05-09T06:57:55.429Z,16.38
2023-05-09T06:59:55.445Z,16.31
2023-05-09T07:01:55.426Z,16.38
2023-05-09T07:03:55.422Z,16.31
2023-05-09T07:05:55.404Z,16.31
2023-05-09T07:07:55.450Z,16.31
2023-05-09T07:10:07.312Z,16.31
2023-05-09T07:11:55.563Z,16.38
2023-05-09T07:13:55.428Z,16.31
2023-05-09T07:15:55.449Z,16.38
2023-05-09T07:17:55.472Z,16.31
2023-05-09T07:19:55.422Z,16.31
2023-05-09T07:21:55.435Z,16.38
2023-05-09T07:23:55.447Z,16.31
2023-05-09T07:25:55.454Z,16.38
2023-05-09T07:27:55.549Z,16.31
2023-05-09T07:29:55.421Z,16.38
2023-05-09T07:31:55.542Z,16.38
2023-05-09T07:33:55.436Z,16.38
2023-05-09T07:35:55.458Z,16.38
2023-05-09T07:37:55.422Z,16.31
2023-05-09T07:39:55.456Z,16.38
2023-05-09T07:41:55.452Z,16.44
2023-05-09T07:43:55.516Z,16.38
2023-05-09T07:45:55.489Z,16.44
2023-05-09T07:47:55.463Z,16.44
2023-05-09T07:49:55.478Z,16.38
2023-05-09T07:51:55.430Z,16.50
2023-05-09T07:53:55.441Z,16.50
2023-05-09T07:55:55.448Z,16.50
2023-05-09T07:57:55.444Z,16.50
2023-05-09T07:59:55.547Z,16.50
2023-05-09T08:01:55.475Z,16.50
2023-05-09T08:03:55.729Z,16.50
2023-05-09T08:05:55.456Z,16.50
2023-05-09T08:07:55.469Z,16.50
2023-05-09T08:09:55.432Z,16.56
2023-05-09T08:11:55.441Z,16.50
2023-05-09T08:13:55.474Z,16.50
2023-05-09T08:15:55.582Z,16.50
2023-05-09T08:17:55.480Z,16.56
2023-05-09T08:19:55.445Z,16.56
2023-05-09T08:21:55.457Z,16.56
2023-05-09T08:23:55.449Z,16.62
2023-05-09T08:25:55.470Z,16.62
2023-05-09T08:27:55.486Z,16.62
2023-05-09T08:29:55.455Z,16.69
2023-05-09T08:31:55.678Z,16.69
2023-05-09T08:33:55.451Z,16.69
2023-05-09T08:35:55.497Z,16.69
2023-05-09T08:37:55.461Z,16.69
2023-05-09T08:39:55.452Z,16.75
2023-05-09T08:41:55.483Z,16.69
2023-05-09T08:43:55.463Z,16.69
2023-05-09T08:45:55.470Z,16.69
2023-05-09T08:47:55.483Z,16.69
2023-05-09T08:49:55.481Z,16.69
2023-05-09T08:51:55.525Z,16.75
2023-05-09T08:53:55.466Z,16.81
2023-05-09T08:55:55.473Z,16.75
2023-05-09T08:57:55.697Z,16.75
2023-05-09T08:59:55.480Z,16.81
2023-05-09T09:01:55.497Z,16.75
2023-05-09T09:03:55.581Z,16.75
2023-05-09T09:05:55.562Z,16.88
2023-05-09T09:07:55.471Z,16.81
2023-05-09T09:09:55.493Z,16.81
2023-05-09T09:11:55.487Z,16.88
2023-05-09T09:13:55.484Z,16.88
2023-05-09T09:15:55.482Z,16.88
2023-05-09T09:17:55.550Z,16.88
2023-05-09T09:19:55.571Z,16.88
2023-05-09T09:21:55.483Z,16.88
2023-05-09T09:23:55.510Z,16.94
2023-05-09T09:25:56.446Z,16.94
2023-05-09T09:27:55.528Z,16.94
2023-05-09T09:29:55.478Z,16.94
2023-05-09T09:31:55.579Z,17.00
2023-05-09T09:33:55.522Z,17.00
2023-05-09T09:35:55.507Z,17.00
2023-05-09T09:37:56.106Z,17.00
2023-05-09T09:39:55.493Z,17.00
2023-05-09T09:41:55.510Z,17.00
2023-05-09T09:43:56.886Z,17.00
2023-05-09T09:45:55.562Z,17.06
2023-05-09T09:47:55.545Z,17.06
2023-05-09T09:49:55.493Z,17.06
2023-05-09T09:51:55.594Z,17.12
2023-05-09T09:53:55.503Z,17.06
2023-05-09T09:55:55.522Z,17.12
2023-05-09T09:57:55.493Z,17.12
2023-05-09T09:59:55.517Z,17.12
2023-05-09T10:01:55.513Z,17.19
2023-05-09T10:03:55.567Z,17.25
2023-05-09T10:05:55.554Z,17.25
2023-05-09T10:07:55.601Z,17.19
2023-05-09T10:09:55.528Z,17.25
2023-05-09T10:11:55.507Z,17.25
2023-05-09T10:13:55.518Z,17.19
2023-05-09T10:15:55.622Z,17.25
2023-05-09T10:17:55.652Z,17.25
2023-05-09T10:19:55.522Z,17.31
2023-05-09T10:21:55.511Z,17.31
2023-05-09T10:23:55.657Z,17.38
2023-05-09T10:25:55.512Z,17.38
2023-05-09T10:27:55.547Z,17.31
2023-05-09T10:29:55.515Z,17.38
2023-05-09T10:31:55.577Z,17.44
2023-05-09T10:33:55.531Z,17.38
2023-05-09T10:35:55.534Z,17.44
2023-05-09T10:37:55.541Z,17.50
2023-05-09T10:39:55.618Z,17.44
2023-05-09T10:41:55.552Z,17.50
2023-05-09T10:43:55.559Z,17.50
2023-05-09T10:45:55.540Z,17.56
2023-05-09T10:47:55.591Z,17.56
2023-05-09T10:49:55.525Z,17.56
2023-05-09T10:51:55.549Z,17.56
2023-05-09T10:53:55.546Z,17.56
2023-05-09T10:55:55.640Z,17.56
2023-05-09T10:57:55.551Z,17.56
2023-05-09T10:59:55.544Z,17.56
2023-05-09T11:01:55.713Z,17.62
2023-05-09T11:03:55.584Z,17.62
2023-05-09T11:05:55.589Z,17.69
2023-05-09T11:07:55.556Z,17.69
2023-05-09T11:09:55.555Z,17.69
2023-05-09T11:11:55.646Z,17.75
2023-05-09T11:13:55.553Z,17.69
2023-05-09T11:15:55.600Z,17.75
2023-05-09T11:17:55.574Z,17.75
2023-05-09T11:19:55.569Z,17.75
2023-05-09T11:21:55.581Z,17.81
2023-05-09T11:23:55.570Z,17.81
2023-05-09T11:25:55.567Z,17.75
2023-05-09T11:27:55.643Z,17.81
2023-05-09T11:29:55.567Z,17.81
2023-05-09T11:31:55.606Z,17.81
2023-05-09T11:33:55.588Z,17.88
2023-05-09T11:35:55.560Z,17.88
2023-05-09T11:37:55.576Z,17.88
2023-05-09T11:39:55.586Z,17.88
2023-05-09T11:41:55.558Z,17.94
2023-05-09T11:43:55.583Z,18.00
2023-05-09T11:45:55.604Z,17.94
2023-05-09T11:47:55.592Z,18.00
2023-05-09T11:49:55.564Z,18.00
2023-05-09T11:51:55.586Z,18.00
2023-05-09T11:53:55.586Z,18.00
2023-05-09T11:55:55.573Z,18.00
2023-05-09T11:57:55.631Z,18.06
2023-05-09T11:59:55.757Z,18.06
2023-05-09T12:01:55.587Z,18.12
2023-05-09T12:03:55.621Z,18.12
2023-05-09T12:05:55.590Z,18.12
2023-05-09T12:07:55.590Z,18.12
2023-05-09T12:09:55.579Z,18.19
2023-05-09T12:11:55.597Z,18.19
2023-05-09T12:13:55.574Z,18.19
2023-05-09T12:15:55.738Z,18.12
2023-05-09T12:17:55.644Z,18.19
2023-05-09T12:19:55.598Z,18.25
2023-05-09T12:21:55.598Z,18.25
2023-05-09T12:23:55.591Z,18.25
2023-05-09T12:25:55.617Z,18.19
2023-05-09T12:27:55.586Z,18.25
2023-05-09T12:29:55.635Z,18.25
2023-05-09T12:31:55.781Z,18.25
2023-05-09T12:33:55.608Z,18.25
2023-05-09T12:35:55.610Z,18.25
2023-05-09T12:37:55.597Z,18.31
2023-05-09T12:39:55.612Z,18.31
2023-05-09T12:42:01.507Z,18.31
2023-05-09T12:43:55.617Z,18.31
2023-05-09T12:45:55.593Z,18.31
2023-05-09T12:47:55.758Z,18.38
2023-05-09T12:49:55.619Z,18.31
2023-05-09T12:51:55.615Z,18.38
2023-05-09T12:53:55.618Z,18.44
2023-05-09T12:55:55.609Z,18.44
2023-05-09T12:57:55.629Z,18.44
2023-05-09T12:59:55.606Z,18.44
2023-05-09T13:01:55.667Z,18.50
2023-05-09T13:03:55.712Z,18.50
2023-05-09T13:05:55.619Z,18.50
2023-05-09T13:07:55.628Z,18.56
2023-05-09T13:09:55.618Z,18.50
2023-05-09T13:11:55.637Z,18.50
2023-05-09T13:13:55.633Z,18.50
2023-05-09T13:15:55.632Z,18.56
2023-05-09T13:17:55.724Z,18.56
2023-05-09T13:19:55.703Z,18.56
2023-05-09T13:21:55.641Z,18.56
2023-05-09T13:23:55.634Z,18.56
2023-05-09T13:25:55.644Z,18.62
2023-05-09T13:27:55.630Z,18.69
2023-05-09T13:29:55.635Z,18.62
2023-05-09T13:31:55.646Z,18.62
2023-05-09T13:33:55.626Z,18.69
2023-05-09T13:35:55.728Z,18.69
2023-05-09T13:37:55.637Z,18.62
2023-05-09T13:39:55.652Z,18.69
2023-05-09T13:41:55.640Z,18.69
2023-05-09T13:43:55.652Z,18.75
2023-05-09T13:45:55.713Z,18.75
2023-05-09T13:47:55.658Z,18.75
2023-05-09T13:49:55.804Z,18.81
2023-05-09T13:51:55.729Z,18.75
2023-05-09T13:53:55.658Z,18.81
2023-05-09T13:55:55.644Z,18.81
2023-05-09T13:57:55.666Z,18.81
2023-05-09T13:59:55.682Z,18.81
2023-05-09T14:01:55.795Z,18.88
2023-05-09T14:03:55.700Z,18.81
2023-05-09T14:05:55.652Z,18.88
2023-05-09T14:07:55.757Z,18.88
2023-05-09T14:10:08.400Z,18.88
2023-05-09T14:11:55.674Z,18.88
2023-05-09T14:13:55.669Z,18.94
2023-05-09T14:15:55.694Z,18.94
2023-05-09T14:17:55.706Z,18.94
2023-05-09T14:19:55.664Z,18.94
2023-05-09T14:21:55.688Z,18.94
2023-05-09T14:23:55.750Z,18.94
2023-05-09T14:25:55.686Z,18.94
2023-05-09T14:27:55.688Z,18.94
2023-05-09T14:29:55.671Z,19.00
2023-05-09T14:31:55.768Z,18.94
2023-05-09T14:33:55.679Z,19.00
2023-05-09T14:35:55.694Z,19.00
2023-05-09T14:37:55.678Z,19.00
2023-05-09T14:39:55.777Z,19.00
2023-05-09T14:41:55.682Z,19.00
2023-05-09T14:43:55.673Z,19.06
2023-05-09T14:45:55.694Z,19.12
2023-05-09T14:47:55.697Z,19.12
2023-05-09T14:49:55.698Z,19.06
2023-05-09T14:51:55.674Z,19.12
2023-05-09T14:53:55.698Z,19.06
2023-05-09T14:55:55.768Z,19.06
2023-05-09T14:57:55.680Z,19.06
2023-05-09T14:59:58.851Z,19.12
2023-05-09T15:01:55.683Z,19.12
2023-05-09T15:03:55.724Z,19.12
2023-05-09T15:05:55.687Z,19.12
2023-05-09T15:07:55.708Z,19.12
2023-05-09T15:09:55.711Z,19.12
2023-05-09T15:11:55.794Z,19.12
2023-05-09T15:13:55.715Z,19.12
2023-05-09T15:15:55.695Z,19.19
2023-05-09T15:17:55.714Z,19.19
2023-05-09T15:19:55.711Z,19.19
2023-05-09T15:21:55.721Z,19.25
2023-05-09T15:23:55.716Z,19.25
2023-05-09T15:25:55.713Z,19.19
2023-05-09T15:27:55.827Z,19.19
2023-05-09T15:29:55.706Z,19.25
2023-05-09T15:31:55.727Z,19.19
2023-05-09T15:33:55.722Z,19.19
2023-05-09T15:35:55.726Z,19.25
2023-05-09T15:37:55.839Z,19.25
2023-05-09T15:39:55.835Z,19.19
2023-05-09T15:41:55.745Z,19.19
2023-05-09T15:43:55.820Z,19.25
2023-05-09T15:45:55.776Z,19.25
2023-05-09T15:47:55.818Z,19.25
2023-05-09T15:49:55.745Z,19.25
2023-05-09T15:51:55.736Z,19.25
2023-05-09T15:53:55.726Z,19.25
2023-05-09T15:55:55.754Z,19.25
2023-05-09T15:57:55.767Z,19.25
2023-05-09T15:59:55.850Z,19.25
2023-05-09T16:01:55.803Z,19.25
2023-05-09T16:03:55.892Z,19.31
2023-05-09T16:05:55.753Z,19.25
2023-05-09T16:07:55.736Z,19.31
2023-05-09T16:09:55.759Z,19.31
2023-05-09T16:11:55.741Z,19.31
2023-05-09T16:13:55.840Z,19.31
2023-05-09T16:15:55.871Z,19.31
2023-05-09T16:17:55.767Z,19.25
2023-05-09T16:19:55.798Z,19.31
2023-05-09T16:21:55.757Z,19.31
2023-05-09T16:23:55.769Z,19.31
2023-05-09T16:25:55.758Z,19.25
2023-05-09T16:27:55.817Z,19.38
2023-05-09T16:29:55.772Z,19.31
2023-05-09T16:31:55.897Z,19.31
2023-05-09T16:33:55.958Z,19.31
2023-05-09T16:35:55.766Z,19.31
2023-05-09T16:37:55.803Z,19.38
2023-05-09T16:39:55.761Z,19.31
2023-05-09T16:41:55.798Z,19.31
2023-05-09T16:43:55.768Z,19.31
2023-05-09T16:45:55.808Z,19.38
2023-05-09T16:47:56.066Z,19.38
2023-05-09T16:49:55.775Z,19.31
2023-05-09T16:51:55.812Z,19.38
2023-05-09T16:53:55.776Z,19.38
2023-05-09T16:55:55.792Z,19.31
2023-05-09T16:57:55.777Z,19.31
2023-05-09T16:59:55.791Z,19.38
2023-05-09T17:01:55.796Z,19.38
2023-05-09T17:03:55.827Z,19.31
2023-05-09T17:05:55.799Z,19.25
2023-05-09T17:07:55.787Z,19.31
2023-05-09T17:09:55.824Z,19.31
2023-05-09T17:11:55.792Z,19.31
2023-05-09T17:13:55.801Z,19.31
2023-05-09T17:15:55.891Z,19.31
2023-05-09T17:17:56.966Z,19.25
2023-05-09T17:19:55.900Z,19.25
2023-05-09T17:21:55.800Z,19.31
2023-05-09T17:23:55.937Z,19.25
2023-05-09T17:25:55.804Z,19.25
2023-05-09T17:27:55.806Z,19.25
2023-05-09T17:29:55.820Z,19.31
2023-05-09T17:31:55.895Z,19.25
2023-05-09T17:33:55.828Z,19.25
2023-05-09T17:35:56.013Z,19.31
2023-05-09T17:37:55.824Z,19.25
2023-05-09T17:39:55.818Z,19.25
2023-05-09T17:41:55.853Z,19.12
2023-05-09T17:43:55.827Z,19.00
2023-05-09T17:45:55.857Z,18.88
2023-05-09T17:47:55.849Z,18.88
2023-05-09T17:49:56.948Z,18.75
2023-05-09T17:51:55.924Z,18.69
2023-05-09T17:53:55.838Z,18.62
2023-05-09T17:55:55.819Z,18.56
2023-05-09T17:57:55.952Z,18.50
2023-05-09T17:59:55.873Z,18.38
2023-05-09T18:01:55.866Z,18.25
2023-05-09T18:03:55.970Z,18.25
2023-05-09T18:05:55.841Z,18.19
2023-05-09T18:07:55.912Z,18.19
2023-05-09T18:09:55.939Z,18.00
2023-05-09T18:11:55.862Z,18.00
2023-05-09T18:13:55.841Z,17.94
2023-05-09T18:15:55.908Z,17.81
2023-05-09T18:17:55.873Z,17.75
2023-05-09T18:19:55.844Z,17.69
2023-05-09T18:21:55.846Z,17.62
2023-05-09T18:23:55.944Z,17.56
2023-05-09T18:25:55.867Z,17.50
2023-05-09T18:27:55.842Z,17.38
2023-05-09T18:29:55.929Z,17.38
2023-05-09T18:31:56.090Z,17.31
2023-05-09T18:33:55.860Z,17.19
2023-05-09T18:35:55.921Z,17.12
2023-05-09T18:37:55.846Z,17.00
2023-05-09T18:39:55.966Z,16.94
2023-05-09T18:41:55.848Z,16.88
2023-05-09T18:44:00.596Z,16.88
2023-05-09T18:45:55.874Z,16.75
2023-05-09T18:47:55.947Z,16.69
2023-05-09T18:49:55.854Z,16.62
2023-05-09T18:51:55.852Z,16.56
2023-05-09T18:53:56.062Z,16.44
2023-05-09T18:55:55.954Z,16.38
2023-05-09T18:57:55.885Z,16.31
2023-05-09T18:59:55.858Z,16.31
2023-05-09T19:01:55.870Z,16.25
2023-05-09T19:03:55.929Z,16.19
2023-05-09T19:05:55.857Z,16.12
2023-05-09T19:07:55.880Z,16.06
2023-05-09T19:09:55.869Z,16.00
2023-05-09T19:11:55.970Z,16.00
2023-05-09T19:13:55.978Z,15.94
2023-05-09T19:15:55.880Z,15.94
2023-05-09T19:17:55.868Z,15.88
2023-05-09T19:19:55.868Z,15.75
2023-05-09T19:21:55.901Z,15.75
2023-05-09T19:23:55.870Z,15.75
2023-05-09T19:25:55.907Z,15.69
2023-05-09T19:27:55.870Z,15.62
2023-05-09T19:29:55.885Z,15.62
2023-05-09T19:31:55.874Z,15.56
2023-05-09T19:33:55.884Z,15.56
2023-05-09T19:35:56.141Z,15.50
2023-05-09T19:37:55.900Z,15.56
2023-05-09T19:39:55.924Z,15.44
2023-05-09T19:41:56.368Z,15.44
2023-05-09T19:43:55.898Z,15.38
2023-05-09T19:45:55.934Z,15.38
2023-05-09T19:47:55.962Z,15.31
2023-05-09T19:49:55.898Z,15.31
2023-05-09T19:51:55.883Z,15.31
2023-05-09T19:53:55.914Z,15.25
2023-05-09T19:55:55.906Z,15.25
2023-05-09T19:57:55.911Z,15.19
2023-05-09T19:59:55.906Z,15.19
2023-05-09T20:01:55.978Z,15.12
2023-05-09T20:03:56.072Z,15.19
2023-05-09T20:05:55.918Z,15.00
2023-05-09T20:07:55.908Z,15.06
2023-05-09T20:09:55.905Z,15.00
2023-05-09T20:11:55.937Z,15.06
2023-05-09T20:13:55.927Z,15.00
2023-05-09T20:15:55.947Z,15.00
2023-05-09T20:17:55.967Z,14.94
2023-05-09T20:19:55.894Z,14.94
2023-05-09T20:21:55.961Z,14.88
2023-05-09T20:23:55.900Z,14.88
2023-05-09T20:25:55.964Z,14.81
2023-05-09T20:27:55.930Z,14.81
2023-05-09T20:29:55.924Z,14.75
2023-05-09T20:31:55.986Z,14.81
2023-05-09T20:33:55.910Z,14.81
2023-05-09T20:35:55.931Z,14.75
2023-05-09T20:37:55.908Z,14.69
2023-05-09T20:39:55.903Z,14.69
2023-05-09T20:41:55.920Z,14.69
2023-05-09T20:43:57.114Z,14.69
2023-05-09T20:45:55.979Z,14.62
2023-05-09T20:47:56.090Z,14.62
2023-05-09T20:49:58.214Z,14.62
2023-05-09T20:51:55.922Z,14.62
2023-05-09T20:53:55.929Z,14.56
2023-05-09T20:55:55.926Z,14.50
2023-05-09T20:57:55.918Z,14.56
2023-05-09T20:59:55.959Z,14.50
2023-05-09T21:01:55.983Z,14.50
2023-05-09T21:03:55.936Z,14.50
2023-05-09T21:05:55.942Z,14.44
2023-05-09T21:07:55.946Z,14.44
2023-05-09T21:09:55.927Z,14.44
2023-05-09T21:11:55.924Z,14.38
2023-05-09T21:13:55.942Z,14.38
2023-05-09T21:15:55.927Z,14.38
2023-05-09T21:17:55.974Z,14.31
2023-05-09T21:19:55.935Z,14.31
2023-05-09T21:21:55.965Z,14.31
2023-05-09T21:23:55.953Z,14.38
2023-05-09T21:25:55.939Z,14.31
2023-05-09T21:27:55.945Z,14.25
2023-05-09T21:29:55.933Z,14.25
2023-05-09T21:31:55.972Z,14.31
2023-05-09T21:33:55.932Z,14.25
2023-05-09T21:35:55.946Z,14.25
2023-05-09T21:37:55.949Z,14.19
2023-05-09T21:39:55.933Z,14.19
2023-05-09T21:41:55.954Z,14.19
2023-05-09T21:43:55.931Z,14.12
2023-05-09T21:45:56.037Z,14.12
2023-05-09T21:47:56.037Z,14.19
2023-05-09T21:49:55.961Z,14.12
2023-05-09T21:51:55.968Z,14.12
2023-05-09T21:53:55.984Z,14.12
2023-05-09T21:55:55.993Z,14.06
2023-05-09T21:57:55.967Z,14.06
2023-05-09T21:59:55.956Z,14.00
2023-05-09T22:01:55.982Z,14.06
2023-05-09T22:03:56.058Z,14.06
2023-05-09T22:05:55.956Z,14.06
2023-05-09T22:07:55.950Z,13.94
2023-05-09T22:09:55.974Z,13.94
2023-05-09T22:11:55.949Z,13.94
2023-05-09T22:13:55.961Z,13.94
2023-05-09T22:15:55.977Z,13.94
2023-05-09T22:17:55.975Z,13.94
2023-05-09T22:19:55.960Z,13.88
2023-05-09T22:21:55.955Z,13.88
2023-05-09T22:23:56.013Z,13.88
2023-05-09T22:25:55.947Z,13.88
2023-05-09T22:27:55.977Z,13.94
2023-05-09T22:29:55.955Z,13.81
2023-05-09T22:31:56.075Z,13.88
2023-05-09T22:33:55.997Z,13.81
2023-05-09T22:35:55.963Z,13.81
2023-05-09T22:37:55.971Z,13.81
2023-05-09T22:39:56.079Z,13.75
2023-05-09T22:41:55.976Z,13.75
2023-05-09T22:43:55.965Z,13.69
2023-05-09T22:45:55.998Z,13.69
2023-05-09T22:47:56.017Z,13.75
2023-05-09T22:49:55.966Z,13.69
2023-05-09T22:51:56.020Z,13.69
2023-05-09T22:53:55.961Z,13.69
2023-05-09T22:55:55.987Z,13.69
2023-05-09T22:57:55.966Z,13.62
2023-05-09T22:59:55.990Z,13.62
2023-05-09T23:01:55.970Z,13.56
2023-05-09T23:03:55.997Z,13.62
2023-05-09T23:05:55.984Z,13.62
2023-05-09T23:07:55.979Z,13.56
2023-05-09T23:09:56.006Z,13.56
2023-05-09T23:11:55.976Z,13.56
2023-05-09T23:13:55.989Z,13.50
2023-05-09T23:15:56.028Z,13.50
2023-05-09T23:17:56.023Z,13.56
2023-05-09T23:19:56.001Z,13.50
2023-05-09T23:21:55.983Z,13.50
2023-05-09T23:23:55.997Z,13.44
2023-05-09T23:25:55.978Z,13.44
2023-05-09T23:27:56.023Z,13.38
2023-05-09T23:29:55.989Z,13.44
2023-05-09T23:31:55.988Z,13.38
2023-05-09T23:33:56.109Z,13.44
2023-05-09T23:35:55.991Z,13.38
2023-05-09T23:37:55.999Z,13.38
2023-05-09T23:39:55.996Z,13.38
2023-05-09T23:41:56.014Z,13.31
2023-05-09T23:43:55.997Z,13.31
2023-05-09T23:45:55.984Z,13.25
2023-05-09T23:47:56.047Z,13.31
2023-05-09T23:49:55.994Z,13.31
2023-05-09T23:51:56.006Z,13.25
2023-05-09T23:53:55.989Z,13.25
2023-05-09T23:55:56.009Z,13.19
2023-05-09T23:57:55.995Z,13.19
2023-05-09T23:59:55.998Z,13.25
